Risultati

Download risultati: TXT, XML IOF

Gara Sprint - Festa del Comitato Trentino
Rosso - lunghezza: 2000mt - dislivello: 0mt
pos. cat. tempo Nome società p. LB p. CITA vel.
1ROSSO *00:17:57CANDOTTI MicheleA.D. TRENT-O0:08:5800:17:57|2000|0|17.95
2ROSSO *00:18:50GAIO ParideU.S. PRIMIERO A.S.D.0:09:2400:18:50|2000|0|18.83
3ROSSO *00:20:29CAVAZZANI AugustoORIENTEERING PERGINE A.S....0:10:1400:20:29|2000|0|20.48
4ROSSO *00:20:45FRANCESCHINEL ChrisA.S.D. G.S. PAVIONE0:10:2200:20:45|2000|0|20.75
5ROSSO *00:20:51MARTINATTI StefanoORIENTEERING PINÈ ...0:10:2500:20:51|2000|0|20.85
6ROSSO *00:20:52PAOLI GiorgioORIENTEERING PERGINE A.S....0:10:2600:20:52|2000|0|20.87
7ROSSO *00:21:28CORONA MattiaU.S. PRIMIERO A.S.D.0:10:4400:21:28|2000|0|21.47
8ROSSO *00:21:48GAIO RacheleU.S. PRIMIERO A.S.D.0:10:5400:21:48|2000|0|21.80
9ROSSO *00:22:47GOBBER GiuliaA.S.D. G.S. PAVIONE0:11:2300:22:47|2000|0|22.78
10ROSSO *00:23:13SEGATTA AndreaA.D. TRENT-O0:11:3600:23:13|2000|0|23.22
11ROSSO *00:23:15VIDALE SimonePANDA ORIENTEERING VALS. ...0:11:3700:23:15|2000|0|23.25
12ROSSO *00:24:38PARIS NausicaORIENTEERING MEZZOCORONA ...0:12:1800:24:38|2000|0|24.63
13ROSSO *00:24:54SIMION EsterA.S.D. G.S. PAVIONE0:12:2600:24:54|2000|0|24.90
14ROSSO *00:25:18VIDALE EnnioPANDA ORIENTEERING VALS. ...0:12:3900:25:18|2000|0|25.30
15ROSSO *00:25:20TRENTIN DaniloPANDA ORIENTEERING VALS. ...0:12:3900:25:20|2000|0|25.33
16ROSSO *00:25:55SARTORI ElisaORIENTEERING PERGINE A.S....0:12:5700:25:55|2000|0|25.92
17ROSSO *00:25:59GOBBI GianlucaORIENTEERING PERGINE A.S....0:12:5900:25:59|2000|0|25.98
18ROSSO *00:26:44CONCI AlessandroORIENTEERING CREA ROSSA A...0:13:2100:26:44|2000|0|26.73
19ROSSO *00:26:54BASSANI PaolaPANDA ORIENTEERING VALS. ...0:13:2600:26:54|2000|0|26.90
20ROSSO *00:27:25GRISENTI AlessiaORIENTEERING PINÈ ...0:13:4200:27:25|2000|0|27.42
21ROSSO *00:27:39BONECCHER EdoardoGRONLAIT ORIENTEERING TEA...0:13:4900:27:39|2000|0|27.65
22ROSSO *00:27:41SIMION ElenaA.S.D. G.S. PAVIONE0:13:5000:27:41|2000|0|27.68
23ROSSO *00:28:16RIGONI AlessiaA.S.D. G.S. PAVIONE0:14:0800:28:16|2000|0|28.27
24ROSSO *00:28:21PACHER MirtaPANDA ORIENTEERING VALS. ...0:14:1000:28:21|2000|0|28.35
25ROSSO *00:30:27TRENTIN ValentinaPANDA ORIENTEERING VALS. ...0:15:1300:30:27|2000|0|30.45
26ROSSO *00:30:33BAZZANELLA GiulioORIENTEERING MEZZOCORONA ...0:15:1600:30:33|2000|0|30.55
27ROSSO *00:30:38FEDEL LeonardoORIENTEERING PINÈ ...0:15:1800:30:38|2000|0|30.63
28ROSSO *00:31:12PEZZÉ RobertoGRONLAIT ORIENTEERING TEA...0:15:3500:31:12|2000|0|31.20
29ROSSO *00:31:54TRENTIN AngelaPANDA ORIENTEERING VALS. ...0:15:5600:31:54|2000|0|31.90
30ROSSO *00:34:11PEDENZINI MatteoORIENTEERING CREA ROSSA A...0:17:0500:34:11|2000|0|34.18
31ROSSO *00:34:36ROSTIROLLA SabrinaORIENTEERING CREA ROSSA A...0:17:1800:34:36|2000|0|34.60
32ROSSO *00:34:42EBERLE Maria GraziaORIENTEERING MEZZOCORONA ...0:17:2100:34:42|2000|0|34.70
33ROSSO *00:34:49MAZZUCCO WalterORIENTEERING DOLOMITI ASD0:17:2400:34:49|2000|0|34.82
34ROSSO *00:38:09PEDENZINI DavidORIENTEERING CREA ROSSA A...0:19:0400:38:09|2000|0|38.15
35ROSSO *00:39:25ROSA MARCO ALDOGRUPPO ORSI SCI FONDO FIT...0:19:4200:39:25|2000|0|39.42
36ROSSO *00:40:50TAIT RossellaORIENTEERING MEZZOCORONA ...0:20:2400:40:50|2000|0|40.83
37ROSSO *00:43:45MOTTER ElsaPANDA ORIENTEERING VALS. ...0:21:5200:43:45|2000|0|43.75
38ROSSO *00:44:18ZUCAL CelestinoGRUPPO ORSI SCI FONDO FIT...0:22:0800:44:18|2000|0|44.30
39ROSSO *00:46:36CHIETTINI Maria CristinaORIENTEERING MEZZOCORONA ...0:23:1800:46:36|2000|0|46.60
40ROSSO *00:54:22CAVEDINI Carlo AlbertoA.S.D. ORIENT EXPRESS VER...0:27:1100:54:22|2000|0|54.37
PMROSSO *00:21:51SCALET DiegoA.S.D. G.S. PAVIONE0:10:5500:21:51|2000|0|21.85
PMROSSO *00:28:53DAVID DonatellaORIENTEERING DOLOMITI ASD0:14:2600:28:53|2000|0|28.88
PMROSSO *00:30:24SIMONCELLI AnnaU.S.D. SAN GIORGIO0:15:1100:30:24|2000|0|30.40
PMROSSO *00:32:28DEBIASI DennisPANDA ORIENTEERING VALS. ...0:16:1400:32:28|2000|0|32.47
RIROSSO *00:40:35FAIFER CristinaPANDA ORIENTEERING VALS. ...0:20:1700:40:35|2000|0|40.58
Risultati per pagina:

PARTNER UFFICIALI FISO